Time;durP1;ratioP1;P1;durP2;ratioP2;P2;SDS_P1;SDS_P2;PMS_P1;PMS_P2;Temp;Humidity;BMP_temperature;BMP_pressure;BME280_temperature;BME280_humidity;BME280_pressure;Samples;Min_cycle;Max_cycle;Signal;HPM_P1;HPM_P2
2023/05/31 00:02:23;;;;;;;7.75;2.95;;;13.80;83.50;;;;;;4994366;28;20046;-81
2023/05/31 00:04:49;;;;;;;8.00;3.28;;;13.80;83.60;;;;;;5009451;28;20045;-81
2023/05/31 00:07:14;;;;;;;7.30;2.70;;;13.70;84.30;;;;;;5009044;28;20026;-80
2023/05/31 00:09:40;;;;;;;6.30;3.08;;;13.70;84.90;;;;;;4994081;28;20034;-80
2023/05/31 00:12:06;;;;;;;5.03;2.83;;;13.70;84.60;;;;;;4992581;28;20049;-79
2023/05/31 00:14:32;;;;;;;5.93;3.00;;;13.70;84.70;;;;;;4993978;28;20034;-82
2023/05/31 00:16:57;;;;;;;8.40;3.45;;;13.70;85.40;;;;;;4993895;28;20030;-80
2023/05/31 00:19:23;;;;;;;5.80;2.40;;;13.60;85.50;;;;;;4992836;28;20069;-80
2023/05/31 00:21:48;;;;;;;4.00;2.15;;;13.60;85.60;;;;;;4993547;28;20041;-81
2023/05/31 00:24:15;;;;;;;5.78;3.13;;;13.60;85.60;;;;;;5009026;28;20035;-80
2023/05/31 00:26:41;;;;;;;5.93;3.22;;;13.50;86.20;;;;;;4993012;28;20045;-80
2023/05/31 00:29:06;;;;;;;5.60;2.67;;;13.50;86.50;;;;;;4993793;28;20438;-81
2023/05/31 00:31:32;;;;;;;8.50;3.33;;;13.50;86.80;;;;;;4993937;28;20037;-81
2023/05/31 00:33:57;;;;;;;6.50;2.85;;;13.50;86.90;;;;;;4993942;28;20498;-80
2023/05/31 00:36:23;;;;;;;7.25;3.42;;;13.50;87.30;;;;;;4992284;28;20399;-80
2023/05/31 00:38:49;;;;;;;7.15;3.38;;;13.50;87.70;;;;;;4993972;28;20471;-82
2023/05/31 00:41:15;;;;;;;7.07;3.92;;;13.40;88.00;;;;;;4994201;28;20116;-80
2023/05/31 00:43:41;;;;;;;5.88;3.20;;;13.40;88.00;;;;;;4993396;28;20026;-80
2023/05/31 00:46:14;;;;;;;10.73;3.53;;;13.40;88.20;;;;;;4993779;28;20027;-80
2023/05/31 00:48:42;;;;;;;8.43;4.03;;;13.30;88.40;;;;;;4993958;28;20053;-80
2023/05/31 00:51:08;;;;;;;8.32;4.03;;;13.30;88.80;;;;;;4993778;28;20022;-80
2023/05/31 00:53:34;;;;;;;8.07;3.47;;;13.30;88.70;;;;;;4993476;28;20034;-80
2023/05/31 00:56:00;;;;;;;9.00;3.38;;;13.30;88.80;;;;;;4997732;28;20386;-80
2023/05/31 00:58:27;;;;;;;7.57;3.38;;;13.30;89.40;;;;;;4997424;28;20036;-81
2023/05/31 01:00:54;;;;;;;8.02;3.15;;;13.30;89.20;;;;;;4996594;28;20072;-81
2023/05/31 01:03:20;;;;;;;7.13;3.58;;;13.20;89.40;;;;;;4997111;28;20124;-81
2023/05/31 01:05:46;;;;;;;7.00;3.53;;;13.20;89.70;;;;;;4996100;28;20526;-81
2023/05/31 01:08:14;;;;;;;7.35;3.90;;;13.20;89.70;;;;;;4997401;28;20050;-80
2023/05/31 01:10:40;;;;;;;10.68;3.80;;;13.20;90.00;;;;;;4996851;28;20081;-81
2023/05/31 01:13:14;;;;;;;7.57;4.03;;;13.10;90.00;;;;;;4997177;28;20030;-80
2023/05/31 01:15:55;;;;;;;7.70;3.63;;;13.10;90.10;;;;;;4997470;28;20494;-81
2023/05/31 01:18:26;;;;;;;10.65;4.43;;;13.10;90.20;;;;;;4995872;28;20438;-80
2023/05/31 01:20:56;;;;;;;8.45;3.90;;;13.10;90.30;;;;;;4996971;28;20035;-81
2023/05/31 01:23:45;;;;;;;12.70;4.10;;;13.00;90.40;;;;;;4995986;28;20050;-80
2023/05/31 01:26:18;;;;;;;6.53;3.38;;;13.00;90.30;;;;;;4995748;28;20033;-80
2023/05/31 01:28:49;;;;;;;9.20;3.80;;;13.00;90.30;;;;;;4996953;28;20046;-81
2023/05/31 01:31:19;;;;;;;8.20;3.60;;;13.00;90.50;;;;;;4997090;28;20018;-80
2023/05/31 01:33:45;;;;;;;8.65;3.83;;;13.00;90.40;;;;;;4996978;28;20027;-81
2023/05/31 01:36:11;;;;;;;10.10;4.90;;;13.00;90.70;;;;;;4996752;28;20035;-81
2023/05/31 01:38:37;;;;;;;8.60;4.38;;;13.00;91.00;;;;;;4996729;28;20034;-80
2023/05/31 01:41:06;;;;;;;10.05;4.82;;;13.00;91.10;;;;;;4996653;28;20034;-80
2023/05/31 01:43:33;;;;;;;10.57;5.57;;;12.90;91.50;;;;;;4995362;28;20035;-81
2023/05/31 01:46:00;;;;;;;7.57;3.80;;;12.90;91.10;;;;;;4996597;28;20022;-81
2023/05/31 01:48:27;;;;;;;13.38;4.25;;;12.90;91.10;;;;;;4996780;28;20031;-81
2023/05/31 01:50:53;;;;;;;11.10;5.32;;;12.80;91.20;;;;;;4996575;28;20034;-80
2023/05/31 01:53:19;;;;;;;9.63;4.28;;;12.90;91.30;;;;;;4995272;28;20066;-79
2023/05/31 01:55:46;;;;;;;10.20;4.63;;;12.80;91.30;;;;;;5011542;28;20068;-80
2023/05/31 01:58:13;;;;;;;9.38;4.82;;;12.80;91.30;;;;;;4996256;28;20045;-81
2023/05/31 02:00:41;;;;;;;10.30;4.93;;;12.80;91.40;;;;;;5011529;28;20053;-80
2023/05/31 02:03:07;;;;;;;10.18;5.40;;;12.80;91.50;;;;;;4996251;28;20125;-80
2023/05/31 02:05:32;;;;;;;10.35;4.78;;;12.80;91.70;;;;;;4994773;28;20096;-80
2023/05/31 02:07:58;;;;;;;10.05;5.53;;;12.70;91.60;;;;;;4996167;28;20055;-80
2023/05/31 02:10:24;;;;;;;10.32;5.22;;;12.80;91.80;;;;;;4996173;28;20037;-80
2023/05/31 02:12:50;;;;;;;11.75;6.03;;;12.70;91.80;;;;;;4995207;28;20045;-80
2023/05/31 02:15:19;;;;;;;13.55;6.93;;;12.80;91.90;;;;;;4996159;28;20545;-80
2023/05/31 02:17:46;;;;;;;12.65;6.30;;;12.70;92.00;;;;;;4996060;28;20045;-81
2023/05/31 02:20:15;;;;;;;14.15;6.60;;;12.60;91.90;;;;;;4994685;28;20436;-81
2023/05/31 02:22:45;;;;;;;15.25;7.65;;;12.70;91.90;;;;;;4995838;28;20062;-80
2023/05/31 02:25:13;;;;;;;12.07;6.43;;;12.70;92.30;;;;;;5010724;28;20022;-80
2023/05/31 02:27:39;;;;;;;15.20;6.20;;;12.60;92.10;;;;;;4995656;28;20046;-80
2023/05/31 02:30:06;;;;;;;14.32;7.20;;;12.70;92.10;;;;;;4995992;28;20036;-81
2023/05/31 02:32:35;;;;;;;12.43;6.68;;;12.60;92.40;;;;;;4995442;28;20546;-80
2023/05/31 02:35:04;;;;;;;13.80;7.43;;;12.60;92.40;;;;;;4995631;28;20391;-81
2023/05/31 02:37:30;;;;;;;15.68;7.03;;;12.60;92.40;;;;;;4995609;28;20038;-80
2023/05/31 02:39:56;;;;;;;11.32;5.38;;;12.60;92.30;;;;;;4995802;28;20484;-80
2023/05/31 02:42:21;;;;;;;11.80;7.03;;;12.60;92.40;;;;;;4996034;28;20065;-81
2023/05/31 02:44:47;;;;;;;10.60;6.35;;;12.60;92.40;;;;;;5010759;28;20045;-80
2023/05/31 02:47:13;;;;;;;13.50;7.07;;;12.60;92.40;;;;;;5010505;28;20502;-80
2023/05/31 02:49:39;;;;;;;12.02;7.32;;;12.60;92.40;;;;;;4995405;28;20058;-80
2023/05/31 02:52:05;;;;;;;12.95;7.72;;;12.60;92.70;;;;;;4995543;28;20108;-80
2023/05/31 02:54:30;;;;;;;12.80;6.70;;;12.50;92.60;;;;;;4995464;28;20114;-81
2023/05/31 02:56:56;;;;;;;12.60;7.43;;;12.50;92.50;;;;;;4995135;28;20117;-80
2023/05/31 02:59:23;;;;;;;14.35;7.32;;;12.50;92.60;;;;;;4995423;28;20045;-80
2023/05/31 03:01:48;;;;;;;13.93;7.60;;;12.50;92.70;;;;;;4995044;28;20108;-81
2023/05/31 03:04:14;;;;;;;13.90;6.88;;;12.50;92.80;;;;;;4995098;28;20464;-81
2023/05/31 03:06:40;;;;;;;14.10;7.57;;;12.50;93.10;;;;;;4993975;28;20038;-81
2023/05/31 03:09:07;;;;;;;16.65;7.60;;;12.50;93.30;;;;;;4993914;28;20034;-80
2023/05/31 03:11:32;;;;;;;14.60;7.45;;;12.50;93.10;;;;;;4993685;28;20088;-79
2023/05/31 03:13:58;;;;;;;12.18;7.22;;;12.50;93.20;;;;;;4993729;28;20027;-81
2023/05/31 03:16:24;;;;;;;13.25;7.22;;;12.40;93.20;;;;;;5010351;28;20110;-80
2023/05/31 03:18:50;;;;;;;12.25;6.85;;;12.40;93.20;;;;;;4993473;28;20411;-81
2023/05/31 03:21:17;;;;;;;12.75;7.05;;;12.40;93.20;;;;;;4994835;28;20044;-80
2023/05/31 03:23:43;;;;;;;14.73;6.95;;;12.40;93.40;;;;;;4994743;28;20031;-73
2023/05/31 03:26:09;;;;;;;17.95;7.95;;;12.40;93.60;;;;;;4994835;28;20058;-73
2023/05/31 03:28:35;;;;;;;11.80;6.88;;;12.40;93.40;;;;;;4994314;28;20077;-74
2023/05/31 03:31:01;;;;;;;13.55;7.45;;;12.40;93.50;;;;;;4994654;28;20394;-74
2023/05/31 03:33:27;;;;;;;14.73;7.72;;;12.40;93.60;;;;;;4994774;28;20034;-74
2023/05/31 03:35:53;;;;;;;15.85;7.97;;;12.40;93.70;;;;;;4993429;28;20034;-74
2023/05/31 03:38:18;;;;;;;14.13;8.13;;;12.40;93.80;;;;;;4976944;28;20041;-74
2023/05/31 03:40:44;;;;;;;16.70;8.60;;;12.40;93.90;;;;;;4994588;28;20035;-73
2023/05/31 03:43:10;;;;;;;15.60;7.95;;;12.40;93.70;;;;;;4994107;28;20062;-73
2023/05/31 03:45:35;;;;;;;14.73;8.15;;;12.40;93.80;;;;;;4994417;28;20096;-74
2023/05/31 03:48:01;;;;;;;18.85;9.52;;;12.30;93.80;;;;;;4994377;28;20499;-73
2023/05/31 03:50:27;;;;;;;16.92;8.80;;;12.30;94.00;;;;;;4994303;28;20430;-74
2023/05/31 03:52:52;;;;;;;16.90;8.52;;;12.40;94.20;;;;;;4994384;28;20038;-73
2023/05/31 03:55:18;;;;;;;14.52;7.57;;;12.30;94.10;;;;;;4993117;28;20038;-74
2023/05/31 03:57:44;;;;;;;15.63;8.15;;;12.30;94.10;;;;;;5008928;28;20058;-74
2023/05/31 04:00:11;;;;;;;17.17;8.32;;;12.30;94.40;;;;;;4992883;28;20030;-73
2023/05/31 04:02:37;;;;;;;17.35;8.48;;;12.30;94.30;;;;;;4993958;28;20030;-73
2023/05/31 04:05:04;;;;;;;16.70;8.63;;;12.40;94.40;;;;;;5009317;28;20035;-73
2023/05/31 04:07:31;;;;;;;17.98;9.80;;;12.40;94.70;;;;;;4994477;28;20109;-72
2023/05/31 04:09:56;;;;;;;17.48;8.65;;;12.40;94.80;;;;;;4992579;28;20056;-74
2023/05/31 04:12:22;;;;;;;18.77;9.15;;;12.40;94.70;;;;;;4992400;28;20058;-73
2023/05/31 04:14:47;;;;;;;17.80;9.32;;;12.40;94.90;;;;;;5005507;28;20058;-73
2023/05/31 04:17:13;;;;;;;14.88;7.72;;;12.40;95.10;;;;;;4989874;28;20357;-74
2023/05/31 04:19:39;;;;;;;14.32;8.32;;;12.40;94.90;;;;;;4991220;28;20038;-74
2023/05/31 04:22:04;;;;;;;16.63;9.02;;;12.40;95.00;;;;;;4975839;28;20034;-74
2023/05/31 04:24:30;;;;;;;15.15;8.98;;;12.40;95.20;;;;;;4993847;28;20031;-74
2023/05/31 04:26:56;;;;;;;20.42;9.43;;;12.40;95.30;;;;;;4982562;28;20033;-73
2023/05/31 04:29:22;;;;;;;18.30;8.68;;;12.40;95.50;;;;;;4995499;28;20050;-74
2023/05/31 04:31:48;;;;;;;17.85;9.27;;;12.40;95.40;;;;;;4999146;28;20085;-74
2023/05/31 04:34:18;;;;;;;19.13;9.52;;;12.40;95.40;;;;;;5000267;28;20022;-74
2023/05/31 04:36:48;;;;;;;19.48;10.15;;;12.40;95.70;;;;;;5000699;28;20023;-73
2023/05/31 04:39:19;;;;;;;17.50;8.93;;;12.40;95.80;;;;;;5000137;28;20029;-74
2023/05/31 04:41:45;;;;;;;14.88;9.30;;;12.40;95.50;;;;;;4999921;28;20049;-74
2023/05/31 04:44:11;;;;;;;19.95;10.32;;;12.40;95.70;;;;;;5000294;28;20018;-74
2023/05/31 04:46:36;;;;;;;18.33;9.55;;;12.40;95.70;;;;;;5011643;28;20169;-74
2023/05/31 04:49:04;;;;;;;15.50;9.48;;;12.50;95.70;;;;;;5018701;28;20057;-73
2023/05/31 04:51:30;;;;;;;20.00;10.48;;;12.50;95.80;;;;;;4985494;28;20475;-73
2023/05/31 04:53:56;;;;;;;18.02;9.40;;;12.50;95.90;;;;;;4987372;28;20038;-74
2023/05/31 04:56:22;;;;;;;19.10;9.38;;;12.50;95.80;;;;;;4997776;28;20163;-73
2023/05/31 04:58:47;;;;;;;19.20;11.07;;;12.50;96.10;;;;;;5008545;28;20483;-74
2023/05/31 05:01:14;;;;;;;19.48;10.20;;;12.60;96.20;;;;;;5008695;28;20045;-74
2023/05/31 05:03:40;;;;;;;19.10;9.68;;;12.50;96.00;;;;;;4990882;28;20080;-73
2023/05/31 05:06:16;;;;;;;19.95;10.20;;;12.60;96.10;;;;;;4992491;28;20030;-74
2023/05/31 05:08:42;;;;;;;18.08;10.52;;;12.60;96.00;;;;;;4997630;28;20054;-74
2023/05/31 05:11:08;;;;;;;19.15;10.55;;;12.60;96.10;;;;;;4999603;28;20026;-74
2023/05/31 05:13:34;;;;;;;20.58;11.73;;;12.60;96.20;;;;;;4999889;28;20098;-73
2023/05/31 05:16:00;;;;;;;18.58;10.60;;;12.60;96.10;;;;;;4999800;28;20036;-73
2023/05/31 05:18:26;;;;;;;21.08;11.13;;;12.60;96.30;;;;;;4986135;28;20359;-73
2023/05/31 05:20:52;;;;;;;17.27;10.23;;;12.60;96.20;;;;;;4984406;28;20034;-73
2023/05/31 05:23:18;;;;;;;20.85;10.70;;;12.70;96.10;;;;;;5012377;28;20423;-73
2023/05/31 05:25:43;;;;;;;20.70;11.35;;;12.70;96.30;;;;;;4999565;28;20479;-73
2023/05/31 05:28:10;;;;;;;19.40;10.52;;;12.70;96.30;;;;;;4999859;28;20457;-73
2023/05/31 05:30:37;;;;;;;18.35;11.48;;;12.70;96.50;;;;;;4999907;28;20495;-81
2023/05/31 05:33:03;;;;;;;18.58;11.07;;;12.70;96.40;;;;;;4999847;28;20122;-81
2023/05/31 05:35:29;;;;;;;18.60;10.70;;;12.80;96.40;;;;;;4998682;28;20509;-80
2023/05/31 05:37:55;;;;;;;17.83;10.88;;;12.80;96.40;;;;;;4982481;28;20049;-81
2023/05/31 05:40:20;;;;;;;18.52;11.30;;;12.80;96.30;;;;;;4997168;28;20498;-81
2023/05/31 05:42:48;;;;;;;17.63;9.77;;;12.90;96.40;;;;;;4995383;28;20034;-81
2023/05/31 05:45:14;;;;;;;17.55;10.50;;;13.00;96.40;;;;;;4993396;28;20022;-81
2023/05/31 05:47:40;;;;;;;18.58;10.43;;;12.90;96.40;;;;;;5002071;28;20096;-83
2023/05/31 05:50:06;;;;;;;23.13;11.10;;;13.00;96.40;;;;;;5005244;28;20037;-82
2023/05/31 05:52:32;;;;;;;18.05;10.50;;;13.00;96.30;;;;;;5007467;28;20046;-82
2023/05/31 05:54:58;;;;;;;14.07;9.00;;;13.10;96.40;;;;;;4987630;28;20038;-82
2023/05/31 05:57:24;;;;;;;19.23;9.95;;;13.10;96.40;;;;;;4995728;28;20133;-81
2023/05/31 05:59:50;;;;;;;15.95;10.07;;;13.20;96.40;;;;;;4995981;28;20034;-81
2023/05/31 06:02:16;;;;;;;17.95;9.13;;;13.20;96.40;;;;;;4986060;28;20046;-80
2023/05/31 06:04:42;;;;;;;17.35;9.38;;;13.20;96.30;;;;;;4988937;28;20073;-82
2023/05/31 06:07:07;;;;;;;21.33;10.35;;;13.30;96.30;;;;;;4996095;28;20039;-81
2023/05/31 06:09:33;;;;;;;15.50;10.43;;;13.30;96.20;;;;;;4994831;28;20027;-81
2023/05/31 06:11:59;;;;;;;15.93;9.05;;;13.40;96.20;;;;;;4984888;28;20031;-82
2023/05/31 06:14:24;;;;;;;16.67;10.02;;;13.40;96.10;;;;;;5010759;28;20048;-81
2023/05/31 06:16:50;;;;;;;14.52;8.90;;;13.50;96.00;;;;;;4995994;28;20044;-81
2023/05/31 06:19:16;;;;;;;16.02;8.45;;;13.50;96.00;;;;;;5010324;28;20042;-81
2023/05/31 06:21:41;;;;;;;12.85;8.25;;;13.60;96.00;;;;;;4984825;28;20062;-82
2023/05/31 06:24:07;;;;;;;16.40;8.80;;;13.60;95.90;;;;;;4982167;28;20033;-81
2023/05/31 06:26:35;;;;;;;12.90;7.45;;;13.70;95.80;;;;;;4985058;28;20102;-83
2023/05/31 06:29:01;;;;;;;13.32;8.07;;;13.70;95.70;;;;;;5010212;28;20046;-82
2023/05/31 06:31:27;;;;;;;15.57;8.02;;;13.80;95.70;;;;;;4995655;28;20073;-81
2023/05/31 06:33:52;;;;;;;12.93;7.10;;;13.80;95.50;;;;;;5002890;28;20062;-82
2023/05/31 06:36:18;;;;;;;16.88;8.02;;;13.90;95.40;;;;;;4987539;28;20057;-82
2023/05/31 06:38:46;;;;;;;15.30;7.15;;;14.00;95.40;;;;;;4993284;28;20117;-83
2023/05/31 06:41:12;;;;;;;14.10;6.93;;;14.00;95.30;;;;;;4989319;28;20057;-82
2023/05/31 06:43:37;;;;;;;12.52;6.22;;;14.00;95.20;;;;;;4998650;28;20466;-82
2023/05/31 06:46:07;;;;;;;13.40;6.70;;;14.20;95.20;;;;;;5006966;28;20031;-81
2023/05/31 06:48:33;;;;;;;13.77;6.53;;;14.20;95.10;;;;;;4990015;28;20050;-84
2023/05/31 06:50:59;;;;;;;12.68;5.85;;;14.30;95.10;;;;;;4983714;28;20486;-83
2023/05/31 06:53:25;;;;;;;13.02;6.57;;;14.30;95.00;;;;;;4995060;28;20168;-82
2023/05/31 06:55:51;;;;;;;12.02;5.68;;;14.40;94.90;;;;;;4986396;28;20023;-82
2023/05/31 06:58:17;;;;;;;14.02;5.75;;;14.50;94.80;;;;;;4983075;28;20043;-83
2023/05/31 07:00:42;;;;;;;15.13;5.07;;;14.50;94.60;;;;;;4999328;28;20030;-73
2023/05/31 07:03:08;;;;;;;11.57;5.45;;;14.60;94.50;;;;;;4994819;28;20066;-74
2023/05/31 07:05:34;;;;;;;12.40;4.85;;;14.70;94.40;;;;;;4995023;28;20034;-74
2023/05/31 07:08:00;;;;;;;14.60;4.68;;;14.70;94.20;;;;;;4975388;28;20085;-74
2023/05/31 07:10:27;;;;;;;10.18;4.85;;;14.80;94.10;;;;;;4975305;28;20516;-74
2023/05/31 07:12:53;;;;;;;8.80;4.38;;;14.90;94.00;;;;;;4983331;28;20081;-74
2023/05/31 07:15:19;;;;;;;11.05;4.35;;;15.00;93.80;;;;;;4994938;28;20030;-73
2023/05/31 07:17:45;;;;;;;11.73;4.72;;;15.10;93.60;;;;;;4994913;28;20031;-73
2023/05/31 07:20:11;;;;;;;10.60;4.50;;;15.10;93.40;;;;;;4994237;28;20058;-73
2023/05/31 07:22:37;;;;;;;11.75;4.90;;;15.20;93.20;;;;;;4987801;28;20030;-74
2023/05/31 07:25:03;;;;;;;10.60;3.88;;;15.20;93.10;;;;;;4973899;28;20554;-76
2023/05/31 07:27:30;;;;;;;9.18;3.75;;;15.30;93.00;;;;;;4983016;28;20073;-76
2023/05/31 07:29:56;;;;;;;10.43;3.70;;;15.40;92.90;;;;;;4992555;28;20022;-75
2023/05/31 07:32:22;;;;;;;8.95;3.50;;;15.50;92.70;;;;;;4993143;28;20073;-75
2023/05/31 07:34:47;;;;;;;11.95;3.75;;;15.60;92.60;;;;;;4994474;28;20026;-77
2023/05/31 07:37:13;;;;;;;9.75;3.03;;;15.70;92.40;;;;;;4993138;28;20038;-76
2023/05/31 07:39:39;;;;;;;9.73;3.70;;;15.70;92.20;;;;;;4994330;28;20023;-76
2023/05/31 07:42:05;;;;;;;10.00;3.53;;;15.80;92.10;;;;;;4994253;28;20041;-76
2023/05/31 07:44:31;;;;;;;10.80;3.60;;;15.90;92.00;;;;;;5009277;28;20030;-76
2023/05/31 07:46:56;;;;;;;7.82;3.60;;;15.90;91.90;;;;;;4993035;28;20032;-77
2023/05/31 07:49:22;;;;;;;11.13;3.50;;;16.00;91.60;;;;;;4992978;28;20054;-75
2023/05/31 07:51:48;;;;;;;9.43;4.20;;;16.10;91.50;;;;;;4993015;28;20061;-76
2023/05/31 07:54:13;;;;;;;9.05;2.92;;;16.20;91.30;;;;;;4993105;28;20356;-76
2023/05/31 07:56:40;;;;;;;10.43;4.32;;;16.30;91.20;;;;;;4998737;28;20372;-77
2023/05/31 07:59:06;;;;;;;7.63;2.72;;;16.40;90.90;;;;;;4989657;28;20392;-80
2023/05/31 08:01:33;;;;;;;12.48;3.85;;;16.40;90.80;;;;;;5002205;28;20034;-83
2023/05/31 08:04:12;;;;;;;9.95;4.10;;;16.50;90.50;;;;;;4984594;28;20041;-83
2023/05/31 08:06:38;;;;;;;14.20;3.70;;;16.60;90.20;;;;;;4991515;28;20061;-82
2023/05/31 08:09:08;;;;;;;12.05;3.85;;;16.70;90.10;;;;;;4985494;28;20054;-83
2023/05/31 08:11:37;;;;;;;9.68;3.42;;;16.80;90.00;;;;;;4977867;28;20526;-82
2023/05/31 08:14:04;;;;;;;8.52;3.97;;;16.90;89.80;;;;;;5009070;28;20030;-84
2023/05/31 08:16:30;;;;;;;7.38;3.42;;;17.00;89.70;;;;;;4994265;28;20034;-83
2023/05/31 08:18:56;;;;;;;9.25;3.70;;;17.00;89.40;;;;;;4983450;28;20035;-82
2023/05/31 08:21:22;;;;;;;10.63;3.78;;;17.10;89.10;;;;;;4994786;28;20065;-80
2023/05/31 08:23:48;;;;;;;9.63;3.10;;;17.20;88.80;;;;;;4993573;28;20121;-81
2023/05/31 08:26:13;;;;;;;8.00;3.03;;;17.30;88.60;;;;;;5008764;28;20352;-78
2023/05/31 08:28:40;;;;;;;8.10;2.90;;;17.40;88.30;;;;;;4993423;28;20054;-80
2023/05/31 08:31:06;;;;;;;8.20;3.65;;;17.40;88.00;;;;;;4986143;28;20557;-79
2023/05/31 08:33:32;;;;;;;7.00;3.35;;;17.50;87.80;;;;;;4991549;28;20057;-80
2023/05/31 08:36:03;;;;;;;7.47;3.35;;;17.60;87.50;;;;;;4993585;28;20069;-80
2023/05/31 08:38:29;;;;;;;9.65;3.47;;;17.60;86.70;;;;;;4984026;28;20034;-81
2023/05/31 08:41:00;;;;;;;9.93;3.80;;;17.80;86.50;;;;;;4982944;28;20058;-79
2023/05/31 08:43:26;;;;;;;8.30;3.20;;;17.90;86.40;;;;;;4988276;28;20038;-80
2023/05/31 08:45:52;;;;;;;11.02;2.60;;;18.00;85.90;;;;;;4981911;28;20102;-80
2023/05/31 08:48:29;;;;;;;7.43;3.20;;;18.00;85.60;;;;;;4973724;28;20356;-81
2023/05/31 08:50:58;;;;;;;8.63;3.10;;;18.10;85.10;;;;;;4974102;28;20027;-81
2023/05/31 08:53:27;;;;;;;10.70;3.35;;;18.20;84.40;;;;;;4988768;28;20053;-80
2023/05/31 08:55:54;;;;;;;8.20;3.45;;;18.30;84.20;;;;;;4992033;28;20026;-80
2023/05/31 08:58:20;;;;;;;11.35;2.95;;;18.40;83.50;;;;;;5005002;28;20038;-80
2023/05/31 09:00:46;;;;;;;10.55;3.38;;;18.50;83.30;;;;;;4992375;28;20522;-81
2023/05/31 09:03:12;;;;;;;9.93;2.70;;;18.60;82.90;;;;;;4993489;28;20038;-79
2023/05/31 09:05:38;;;;;;;6.53;2.92;;;18.70;82.70;;;;;;5008637;28;20037;-79
2023/05/31 09:08:04;;;;;;;6.55;2.58;;;18.70;82.10;;;;;;5008282;28;20023;-80
2023/05/31 09:10:30;;;;;;;8.60;2.17;;;18.80;81.50;;;;;;4984177;28;20093;-82
2023/05/31 09:12:56;;;;;;;7.80;2.65;;;18.90;80.60;;;;;;4982079;28;20023;-81
2023/05/31 09:15:23;;;;;;;6.95;2.55;;;19.00;80.30;;;;;;4987265;28;20105;-80
2023/05/31 09:17:50;;;;;;;10.88;2.95;;;19.10;79.70;;;;;;4995702;28;20026;-79
2023/05/31 09:20:16;;;;;;;6.95;2.67;;;19.30;79.00;;;;;;4997030;28;20034;-80
2023/05/31 09:22:42;;;;;;;5.30;1.92;;;19.30;78.00;;;;;;4995152;28;20028;-82
2023/05/31 09:25:08;;;;;;;8.30;2.85;;;19.50;77.60;;;;;;4995713;28;20031;-81
2023/05/31 09:27:39;;;;;;;11.60;3.33;;;19.60;76.80;;;;;;5011773;28;20050;-82
2023/05/31 09:30:12;;;;;;;10.18;2.55;;;19.70;76.30;;;;;;4996551;28;20124;-82
2023/05/31 09:32:39;;;;;;;6.88;2.47;;;19.80;75.70;;;;;;4995660;28;20379;-81
2023/05/31 09:35:15;;;;;;;7.95;2.47;;;19.90;75.30;;;;;;4997228;28;20109;-83
2023/05/31 09:37:48;;;;;;;6.53;2.58;;;20.00;75.50;;;;;;4996784;28;20418;-83
2023/05/31 09:40:22;;;;;;;8.52;2.60;;;20.10;74.60;;;;;;4991211;28;20034;-82
2023/05/31 09:42:51;;;;;;;5.68;2.53;;;20.20;74.30;;;;;;4996574;28;20030;-82
2023/05/31 09:45:18;;;;;;;6.88;2.10;;;20.30;73.70;;;;;;4992079;28;20165;-83
2023/05/31 09:47:44;;;;;;;9.30;2.03;;;20.40;73.30;;;;;;4995542;28;20026;-83
2023/05/31 09:50:11;;;;;;;6.50;1.88;;;20.50;72.80;;;;;;5003231;28;20045;-83
2023/05/31 09:52:40;;;;;;;11.15;2.50;;;20.60;72.70;;;;;;4984781;28;20054;-83
2023/05/31 09:55:08;;;;;;;6.35;1.92;;;20.70;72.30;;;;;;4984158;28;20026;-80
2023/05/31 09:57:41;;;;;;;9.70;2.70;;;20.80;71.20;;;;;;4985291;28;20043;-81
2023/05/31 10:00:18;;;;;;;8.07;2.05;;;20.80;70.40;;;;;;4979493;28;20042;-79
2023/05/31 10:02:54;;;;;;;7.45;1.85;;;21.00;69.90;;;;;;4988249;28;20037;-79
2023/05/31 10:05:21;;;;;;;5.10;1.65;;;21.10;69.40;;;;;;4994190;28;20499;-79
2023/05/31 10:07:52;;;;;;;8.10;1.83;;;21.20;69.40;;;;;;4977953;28;20031;-79
2023/05/31 10:10:20;;;;;;;5.45;1.63;;;21.20;69.10;;;;;;4995381;28;20039;-80
2023/05/31 10:12:48;;;;;;;4.88;1.45;;;21.30;69.10;;;;;;4985067;28;20027;-80
2023/05/31 10:15:19;;;;;;;7.13;1.20;;;21.40;69.00;;;;;;4984057;28;20091;-80
2023/05/31 10:18:00;;;;;;;6.43;1.52;;;21.50;68.50;;;;;;4995927;28;20069;-79
2023/05/31 10:20:32;;;;;;;5.47;1.20;;;21.60;67.20;;;;;;4995972;28;20026;-80
2023/05/31 10:23:02;;;;;;;6.05;1.58;;;21.70;66.80;;;;;;4995763;28;20031;-79
2023/05/31 10:25:35;;;;;;;6.75;1.65;;;21.80;66.60;;;;;;4995901;28;20031;-80
2023/05/31 10:28:07;;;;;;;6.18;1.58;;;22.00;65.80;;;;;;5010239;28;20555;-79
2023/05/31 10:30:36;;;;;;;5.55;1.30;;;22.20;65.40;;;;;;5010189;28;20475;-80
2023/05/31 10:33:13;;;;;;;6.32;1.30;;;22.40;64.80;;;;;;4994721;28;20033;-79
2023/05/31 10:35:39;;;;;;;7.30;1.50;;;22.60;64.80;;;;;;4994523;28;20034;-80
2023/05/31 10:38:06;;;;;;;5.10;1.23;;;22.90;63.80;;;;;;5009998;28;20022;-78
2023/05/31 10:40:43;;;;;;;5.88;1.80;;;23.20;63.30;;;;;;4974984;28;20074;-79
2023/05/31 10:43:23;;;;;;;6.82;1.52;;;23.50;62.60;;;;;;4976139;28;20023;-79
2023/05/31 10:45:52;;;;;;;5.50;1.60;;;23.90;61.60;;;;;;4991959;28;20100;-82
2023/05/31 10:48:21;;;;;;;6.10;1.48;;;24.30;61.20;;;;;;4977905;28;20384;-80
2023/05/31 10:50:53;;;;;;;5.80;1.58;;;24.70;60.70;;;;;;4975817;28;20085;-81
2023/05/31 10:53:18;;;;;;;5.82;1.20;;;25.20;59.50;;;;;;4975111;28;20057;-79
2023/05/31 10:55:46;;;;;;;5.30;1.42;;;25.60;59.60;;;;;;4974877;28;20479;-82
2023/05/31 10:58:47;;;;;;;3.28;1.15;;;26.10;58.90;;;;;;4975910;28;20451;-81
2023/05/31 11:01:14;;;;;;;5.40;1.75;;;26.90;57.90;;;;;;4981596;28;20532;-81
2023/05/31 11:03:58;;;;;;;6.90;1.40;;;27.50;57.60;;;;;;5010192;28;20062;-81
2023/05/31 11:06:27;;;;;;;5.72;1.25;;;28.20;55.90;;;;;;5005422;28;20519;-80
2023/05/31 11:09:00;;;;;;;4.32;1.30;;;28.90;56.20;;;;;;4986062;28;20459;-79
2023/05/31 11:11:31;;;;;;;4.93;1.42;;;29.40;55.20;;;;;;4991484;28;20057;-79
2023/05/31 11:13:59;;;;;;;6.35;1.40;;;29.60;54.20;;;;;;4983676;28;20387;-77
2023/05/31 11:16:26;;;;;;;7.63;1.60;;;29.60;53.60;;;;;;4988329;28;20027;-79
2023/05/31 11:19:16;;;;;;;4.75;1.33;;;29.70;52.60;;;;;;5007215;28;20041;-80
2023/05/31 11:21:58;;;;;;;5.90;1.38;;;29.70;51.10;;;;;;4991236;28;20495;-79
2023/05/31 11:24:33;;;;;;;3.75;0.93;;;29.70;51.10;;;;;;4993785;28;20038;-79
2023/05/31 11:27:00;;;;;;;5.18;1.30;;;29.60;50.40;;;;;;4994462;28;20026;-79
2023/05/31 11:29:51;;;;;;;4.63;1.50;;;29.60;50.10;;;;;;4992293;28;20070;-80
2023/05/31 11:32:35;;;;;;;5.18;1.38;;;29.60;49.30;;;;;;4991523;28;20046;-77
2023/05/31 11:35:03;;;;;;;5.85;1.08;;;29.60;48.80;;;;;;4994490;28;20038;-79
2023/05/31 11:37:31;;;;;;;5.20;1.75;;;29.50;48.70;;;;;;4990167;28;20035;-78
2023/05/31 11:40:03;;;;;;;4.65;1.15;;;29.50;48.80;;;;;;5009090;28;20039;-77
2023/05/31 11:42:31;;;;;;;4.75;1.40;;;29.50;48.60;;;;;;4994552;28;20114;-78
2023/05/31 11:44:57;;;;;;;5.93;1.48;;;29.60;48.30;;;;;;5009292;28;20030;-78
2023/05/31 11:47:27;;;;;;;6.22;1.20;;;29.60;47.90;;;;;;4994252;28;20468;-79
2023/05/31 11:49:56;;;;;;;5.38;1.55;;;29.70;47.40;;;;;;5009514;28;20065;-78
2023/05/31 11:52:22;;;;;;;5.63;1.05;;;29.70;47.30;;;;;;5008904;28;20038;-78
2023/05/31 11:54:48;;;;;;;6.60;1.20;;;29.70;47.20;;;;;;5009538;28;20109;-78
2023/05/31 11:57:20;;;;;;;5.25;1.30;;;29.80;47.10;;;;;;4993941;28;20077;-80
2023/05/31 11:59:46;;;;;;;4.65;1.52;;;30.00;47.20;;;;;;4977243;28;20072;-78
2023/05/31 12:02:12;;;;;;;8.48;1.85;;;30.10;47.00;;;;;;4992893;28;20062;-78
2023/05/31 12:04:42;;;;;;;5.30;1.73;;;30.20;46.80;;;;;;4994304;28;20053;-80
2023/05/31 12:07:17;;;;;;;7.30;1.55;;;30.30;46.60;;;;;;4974466;28;20018;-79
2023/05/31 12:09:43;;;;;;;5.78;1.63;;;30.30;46.30;;;;;;4973279;28;20118;-81
2023/05/31 12:12:11;;;;;;;5.22;1.15;;;30.40;46.60;;;;;;4973362;28;20122;-78
2023/05/31 12:14:37;;;;;;;4.20;1.27;;;30.60;46.60;;;;;;4974645;28;20073;-78
2023/05/31 12:17:04;;;;;;;4.50;1.35;;;30.70;46.20;;;;;;4988305;28;20406;-80
2023/05/31 12:19:30;;;;;;;6.25;1.38;;;30.80;45.80;;;;;;4992643;28;20108;-80
2023/05/31 12:21:56;;;;;;;4.28;1.30;;;31.00;45.80;;;;;;4992663;28;20029;-81
2023/05/31 12:24:22;;;;;;;4.32;1.40;;;31.10;45.50;;;;;;4990407;28;20018;-80
2023/05/31 12:26:48;;;;;;;5.28;1.35;;;31.30;45.40;;;;;;4983250;28;20487;-79
2023/05/31 12:29:15;;;;;;;4.90;1.13;;;31.50;45.30;;;;;;4994303;28;20046;-78
2023/05/31 12:31:41;;;;;;;6.75;1.40;;;31.60;45.00;;;;;;4980618;28;20375;-79
2023/05/31 12:34:11;;;;;;;9.77;1.42;;;31.80;44.90;;;;;;4988926;28;20031;-80
2023/05/31 12:36:41;;;;;;;6.00;1.27;;;31.90;44.40;;;;;;4998605;28;20030;-80
2023/05/31 12:39:09;;;;;;;6.32;1.33;;;32.10;44.30;;;;;;4985913;28;20049;-80
2023/05/31 12:41:35;;;;;;;4.95;1.35;;;32.20;44.20;;;;;;4986798;28;20038;-79
2023/05/31 12:44:01;;;;;;;5.45;1.30;;;32.40;44.10;;;;;;4993481;28;20463;-80